sensor_id;sensor_type;location;lat;lon;timestamp;pressure;altitude;pressure_sealevel;temperature;humidity
47897;BME280;39629;51.400;5.494;2024-01-30T00:03:52;102601.91;;;7.30;90.27
47897;BME280;39629;51.400;5.494;2024-01-30T00:08:54;102599.06;;;7.15;90.34
47897;BME280;39629;51.400;5.494;2024-01-30T00:13:56;102594.09;;;7.24;89.93
47897;BME280;39629;51.400;5.494;2024-01-30T00:18:59;102602.63;;;7.20;90.13
47897;BME280;39629;51.400;5.494;2024-01-30T00:24:03;102593.94;;;7.08;90.39
47897;BME280;39629;51.400;5.494;2024-01-30T00:29:04;102593.19;;;7.13;90.18
47897;BME280;39629;51.400;5.494;2024-01-30T00:34:07;102594.72;;;7.09;90.16
47897;BME280;39629;51.400;5.494;2024-01-30T00:39:09;102581.44;;;6.92;89.96
47897;BME280;39629;51.400;5.494;2024-01-30T00:44:12;102586.53;;;7.15;89.84
47897;BME280;39629;51.400;5.494;2024-01-30T00:49:15;102586.91;;;7.02;89.87
47897;BME280;39629;51.400;5.494;2024-01-30T00:54:17;102586.41;;;7.05;89.74
47897;BME280;39629;51.400;5.494;2024-01-30T00:59:18;102580.06;;;6.89;90.12
47897;BME280;39629;51.400;5.494;2024-01-30T01:04:21;102579.19;;;6.84;90.53
47897;BME280;39629;51.400;5.494;2024-01-30T01:09:23;102573.19;;;6.94;90.00
47897;BME280;39629;51.400;5.494;2024-01-30T01:14:24;102568.75;;;7.04;89.47
47897;BME280;39629;51.400;5.494;2024-01-30T01:19:28;102569.06;;;7.08;89.52
47897;BME280;39629;51.400;5.494;2024-01-30T01:24:30;102569.34;;;7.33;88.41
47897;BME280;39629;51.400;5.494;2024-01-30T01:29:32;102563.13;;;7.28;88.60
47897;BME280;39629;51.400;5.494;2024-01-30T01:34:35;102556.03;;;7.38;88.43
47897;BME280;39629;51.400;5.494;2024-01-30T01:39:37;102569.91;;;7.35;88.44
47897;BME280;39629;51.400;5.494;2024-01-30T01:44:39;102566.41;;;7.57;87.37
47897;BME280;39629;51.400;5.494;2024-01-30T01:49:42;102556.59;;;7.40;88.18
47897;BME280;39629;51.400;5.494;2024-01-30T01:54:44;102551.59;;;7.22;88.95
47897;BME280;39629;51.400;5.494;2024-01-30T01:59:46;102550.13;;;7.36;88.78
47897;BME280;39629;51.400;5.494;2024-01-30T02:04:49;102546.34;;;7.32;88.56
47897;BME280;39629;51.400;5.494;2024-01-30T02:09:51;102548.00;;;7.38;88.11
47897;BME280;39629;51.400;5.494;2024-01-30T02:14:52;102538.50;;;7.47;87.96
47897;BME280;39629;51.400;5.494;2024-01-30T02:19:56;102547.47;;;7.36;88.07
47897;BME280;39629;51.400;5.494;2024-01-30T02:24:59;102544.31;;;7.17;88.83
47897;BME280;39629;51.400;5.494;2024-01-30T02:30:01;102539.97;;;7.11;88.98
47897;BME280;39629;51.400;5.494;2024-01-30T02:35:04;102534.38;;;7.40;88.57
47897;BME280;39629;51.400;5.494;2024-01-30T02:40:07;102527.56;;;7.49;87.91
47897;BME280;39629;51.400;5.494;2024-01-30T02:45:11;102532.78;;;7.66;87.26
47897;BME280;39629;51.400;5.494;2024-01-30T02:50:12;102536.53;;;7.65;86.88
47897;BME280;39629;51.400;5.494;2024-01-30T02:55:16;102534.50;;;7.50;87.74
47897;BME280;39629;51.400;5.494;2024-01-30T03:00:19;102537.78;;;7.57;87.56
47897;BME280;39629;51.400;5.494;2024-01-30T03:05:21;102537.75;;;7.52;87.95
47897;BME280;39629;51.400;5.494;2024-01-30T03:10:24;102527.03;;;7.84;86.68
47897;BME280;39629;51.400;5.494;2024-01-30T03:15:25;102526.63;;;7.65;87.17
47897;BME280;39629;51.400;5.494;2024-01-30T03:20:27;102521.69;;;7.52;87.81
47897;BME280;39629;51.400;5.494;2024-01-30T03:25:30;102513.00;;;7.67;86.89
47897;BME280;39629;51.400;5.494;2024-01-30T03:30:33;102504.38;;;7.60;87.20
47897;BME280;39629;51.400;5.494;2024-01-30T03:35:35;102505.34;;;7.48;88.06
47897;BME280;39629;51.400;5.494;2024-01-30T03:40:38;102509.66;;;7.49;88.08
47897;BME280;39629;51.400;5.494;2024-01-30T03:45:40;102506.84;;;7.39;88.27
47897;BME280;39629;51.400;5.494;2024-01-30T03:50:42;102507.63;;;7.35;88.78
47897;BME280;39629;51.400;5.494;2024-01-30T03:55:45;102505.16;;;7.55;87.96
47897;BME280;39629;51.400;5.494;2024-01-30T04:00:46;102513.13;;;7.50;88.27
47897;BME280;39629;51.400;5.494;2024-01-30T04:05:48;102506.03;;;7.66;88.05
47897;BME280;39629;51.400;5.494;2024-01-30T04:10:51;102517.78;;;7.65;88.13
47897;BME280;39629;51.400;5.494;2024-01-30T04:15:53;102505.59;;;7.79;87.55
47897;BME280;39629;51.400;5.494;2024-01-30T04:20:55;102499.38;;;7.68;88.30
47897;BME280;39629;51.400;5.494;2024-01-30T04:25:58;102497.06;;;7.82;87.80
47897;BME280;39629;51.400;5.494;2024-01-30T04:31:00;102495.97;;;7.78;88.19
47897;BME280;39629;51.400;5.494;2024-01-30T04:36:02;102486.91;;;7.84;88.03
47897;BME280;39629;51.400;5.494;2024-01-30T04:41:05;102484.81;;;7.91;88.00
47897;BME280;39629;51.400;5.494;2024-01-30T04:46:07;102479.75;;;7.95;88.01
47897;BME280;39629;51.400;5.494;2024-01-30T04:51:09;102473.19;;;8.12;87.52
47897;BME280;39629;51.400;5.494;2024-01-30T04:56:12;102468.88;;;8.11;87.62
47897;BME280;39629;51.400;5.494;2024-01-30T05:01:15;102472.38;;;8.12;87.91
47897;BME280;39629;51.400;5.494;2024-01-30T05:06:24;102468.44;;;8.30;87.00
47897;BME280;39629;51.400;5.494;2024-01-30T05:11:27;102459.44;;;8.41;86.82
47897;BME280;39629;51.400;5.494;2024-01-30T05:16:29;102472.59;;;8.53;86.63
47897;BME280;39629;51.400;5.494;2024-01-30T05:21:30;102469.16;;;8.62;86.01
47897;BME280;39629;51.400;5.494;2024-01-30T05:26:33;102479.38;;;8.75;86.78
47897;BME280;39629;51.400;5.494;2024-01-30T05:31:35;102471.88;;;8.77;85.96
47897;BME280;39629;51.400;5.494;2024-01-30T05:36:37;102466.47;;;8.67;86.29
47897;BME280;39629;51.400;5.494;2024-01-30T05:41:40;102472.41;;;8.74;86.62
47897;BME280;39629;51.400;5.494;2024-01-30T05:46:42;102475.59;;;8.71;87.07
47897;BME280;39629;51.400;5.494;2024-01-30T05:51:43;102478.84;;;8.78;85.88
47897;BME280;39629;51.400;5.494;2024-01-30T05:56:46;102476.97;;;8.79;86.69
47897;BME280;39629;51.400;5.494;2024-01-30T06:01:48;102476.09;;;8.63;87.14
47897;BME280;39629;51.400;5.494;2024-01-30T06:06:50;102473.97;;;8.60;87.16
47897;BME280;39629;51.400;5.494;2024-01-30T06:11:53;102475.06;;;8.69;87.09
47897;BME280;39629;51.400;5.494;2024-01-30T06:16:54;102479.34;;;8.65;87.34
47897;BME280;39629;51.400;5.494;2024-01-30T06:21:57;102475.03;;;8.59;87.00
47897;BME280;39629;51.400;5.494;2024-01-30T06:27:00;102479.63;;;8.69;86.98
47897;BME280;39629;51.400;5.494;2024-01-30T06:32:01;102476.66;;;8.70;87.12
47897;BME280;39629;51.400;5.494;2024-01-30T06:37:03;102485.78;;;8.69;86.86
47897;BME280;39629;51.400;5.494;2024-01-30T06:42:06;102488.97;;;8.66;87.27
47897;BME280;39629;51.400;5.494;2024-01-30T06:47:08;102498.34;;;8.64;87.34
47897;BME280;39629;51.400;5.494;2024-01-30T06:52:09;102497.53;;;8.63;87.47
47897;BME280;39629;51.400;5.494;2024-01-30T06:57:12;102512.53;;;8.64;87.94
47897;BME280;39629;51.400;5.494;2024-01-30T07:02:14;102506.94;;;8.71;88.13
47897;BME280;39629;51.400;5.494;2024-01-30T07:07:16;102511.78;;;8.74;87.73
47897;BME280;39629;51.400;5.494;2024-01-30T07:12:19;102523.81;;;8.71;87.79
47897;BME280;39629;51.400;5.494;2024-01-30T07:17:21;102536.72;;;8.79;88.14
47897;BME280;39629;51.400;5.494;2024-01-30T07:22:23;102543.78;;;9.06;86.11
47897;BME280;39629;51.400;5.494;2024-01-30T07:27:26;102552.09;;;9.04;86.67
47897;BME280;39629;51.400;5.494;2024-01-30T07:32:28;102554.06;;;9.29;85.40
47897;BME280;39629;51.400;5.494;2024-01-30T07:37:30;102555.69;;;9.30;85.08
47897;BME280;39629;51.400;5.494;2024-01-30T07:42:33;102561.84;;;9.36;85.15
47897;BME280;39629;51.400;5.494;2024-01-30T07:47:36;102560.44;;;9.13;85.99
47897;BME280;39629;51.400;5.494;2024-01-30T07:52:37;102570.69;;;9.26;84.96
47897;BME280;39629;51.400;5.494;2024-01-30T07:57:41;102571.75;;;9.20;86.66
47897;BME280;39629;51.400;5.494;2024-01-30T08:02:43;102577.63;;;9.17;86.25
47897;BME280;39629;51.400;5.494;2024-01-30T08:07:54;102584.91;;;9.27;85.66
47897;BME280;39629;51.400;5.494;2024-01-30T08:12:57;102590.53;;;9.25;85.53
47897;BME280;39629;51.400;5.494;2024-01-30T08:17:58;102587.03;;;9.20;86.27
47897;BME280;39629;51.400;5.494;2024-01-30T08:23:00;102586.75;;;9.21;87.29
47897;BME280;39629;51.400;5.494;2024-01-30T08:28:03;102584.91;;;9.32;85.80
47897;BME280;39629;51.400;5.494;2024-01-30T08:33:05;102591.66;;;9.44;86.02
47897;BME280;39629;51.400;5.494;2024-01-30T08:38:07;102590.31;;;9.52;86.22
47897;BME280;39629;51.400;5.494;2024-01-30T08:43:10;102593.81;;;9.53;86.40
47897;BME280;39629;51.400;5.494;2024-01-30T08:48:13;102595.44;;;9.64;85.36
47897;BME280;39629;51.400;5.494;2024-01-30T08:53:14;102593.56;;;9.69;85.45
47897;BME280;39629;51.400;5.494;2024-01-30T08:58:17;102598.66;;;9.76;85.40
47897;BME280;39629;51.400;5.494;2024-01-30T09:03:19;102597.31;;;9.89;85.90
47897;BME280;39629;51.400;5.494;2024-01-30T09:08:21;102596.78;;;9.97;84.57
47897;BME280;39629;51.400;5.494;2024-01-30T09:13:24;102581.25;;;10.14;84.78
47897;BME280;39629;51.400;5.494;2024-01-30T09:18:26;102599.75;;;10.21;85.21
47897;BME280;39629;51.400;5.494;2024-01-30T09:23:27;102597.84;;;10.36;84.50
47897;BME280;39629;51.400;5.494;2024-01-30T09:28:31;102604.03;;;10.42;85.00
47897;BME280;39629;51.400;5.494;2024-01-30T09:33:32;102608.84;;;10.45;85.71
47897;BME280;39629;51.400;5.494;2024-01-30T09:38:34;102621.19;;;10.61;84.72
47897;BME280;39629;51.400;5.494;2024-01-30T09:43:37;102624.13;;;10.65;84.48
47897;BME280;39629;51.400;5.494;2024-01-30T09:48:41;102619.03;;;10.74;83.77
47897;BME280;39629;51.400;5.494;2024-01-30T09:53:42;102629.22;;;10.82;82.45
47897;BME280;39629;51.400;5.494;2024-01-30T09:58:46;102627.84;;;10.94;83.06
47897;BME280;39629;51.400;5.494;2024-01-30T10:03:50;102644.72;;;11.10;82.17
47897;BME280;39629;51.400;5.494;2024-01-30T10:08:53;102640.94;;;11.16;82.53
47897;BME280;39629;51.400;5.494;2024-01-30T10:13:56;102638.72;;;11.33;82.21
47897;BME280;39629;51.400;5.494;2024-01-30T10:18:58;102640.00;;;11.41;81.50
47897;BME280;39629;51.400;5.494;2024-01-30T10:23:59;102647.25;;;11.46;80.75
47897;BME280;39629;51.400;5.494;2024-01-30T10:29:02;102649.69;;;11.42;82.08
47897;BME280;39629;51.400;5.494;2024-01-30T10:34:04;102650.78;;;11.41;81.24
47897;BME280;39629;51.400;5.494;2024-01-30T10:39:06;102649.69;;;11.42;81.95
47897;BME280;39629;51.400;5.494;2024-01-30T10:44:11;102657.41;;;11.59;81.55
47897;BME280;39629;51.400;5.494;2024-01-30T10:49:13;102663.34;;;11.56;80.95
47897;BME280;39629;51.400;5.494;2024-01-30T10:54:17;102663.66;;;11.49;82.49
47897;BME280;39629;51.400;5.494;2024-01-30T10:59:22;102667.72;;;11.42;82.42
47897;BME280;39629;51.400;5.494;2024-01-30T11:04:25;102667.91;;;11.55;80.82
47897;BME280;39629;51.400;5.494;2024-01-30T11:09:29;102663.50;;;11.80;79.77
47897;BME280;39629;51.400;5.494;2024-01-30T11:14:32;102663.72;;;11.88;80.88
47897;BME280;39629;51.400;5.494;2024-01-30T11:19:35;102664.59;;;11.79;79.89
47897;BME280;39629;51.400;5.494;2024-01-30T11:24:39;102669.16;;;11.73;81.69
47897;BME280;39629;51.400;5.494;2024-01-30T11:29:42;102661.88;;;11.79;80.01
47897;BME280;39629;51.400;5.494;2024-01-30T11:34:44;102667.16;;;11.94;80.76
47897;BME280;39629;51.400;5.494;2024-01-30T11:39:46;102662.88;;;11.93;79.78
47897;BME280;39629;51.400;5.494;2024-01-30T11:44:49;102665.34;;;12.18;77.26
47897;BME280;39629;51.400;5.494;2024-01-30T11:49:51;102656.44;;;12.23;76.68
47897;BME280;39629;51.400;5.494;2024-01-30T11:54:53;102652.06;;;12.32;74.76
47897;BME280;39629;51.400;5.494;2024-01-30T11:59:56;102643.69;;;12.34;73.87
47897;BME280;39629;51.400;5.494;2024-01-30T12:04:57;102655.53;;;12.38;72.99
47897;BME280;39629;51.400;5.494;2024-01-30T12:09:59;102652.63;;;12.29;71.44
47897;BME280;39629;51.400;5.494;2024-01-30T12:15:03;102657.75;;;12.25;70.97
47897;BME280;39629;51.400;5.494;2024-01-30T12:20:05;102659.66;;;12.25;70.46
47897;BME280;39629;51.400;5.494;2024-01-30T12:25:08;102668.53;;;12.30;69.06
47897;BME280;39629;51.400;5.494;2024-01-30T12:30:13;102678.31;;;12.50;70.13
47897;BME280;39629;51.400;5.494;2024-01-30T12:35:16;102691.94;;;11.96;74.31
47897;BME280;39629;51.400;5.494;2024-01-30T12:40:18;102702.56;;;11.77;75.05
47897;BME280;39629;51.400;5.494;2024-01-30T12:45:21;102705.25;;;11.72;74.01
47897;BME280;39629;51.400;5.494;2024-01-30T12:50:23;102717.09;;;11.71;70.62
47897;BME280;39629;51.400;5.494;2024-01-30T12:55:24;102716.09;;;12.06;67.94
47897;BME280;39629;51.400;5.494;2024-01-30T13:00:30;102716.22;;;12.25;66.42
47897;BME280;39629;51.400;5.494;2024-01-30T13:05:31;102714.97;;;12.51;64.08
47897;BME280;39629;51.400;5.494;2024-01-30T13:10:33;102731.38;;;12.16;65.24
47897;BME280;39629;51.400;5.494;2024-01-30T13:15:36;102729.19;;;11.74;64.70
47897;BME280;39629;51.400;5.494;2024-01-30T13:20:37;102733.88;;;11.53;64.58
47897;BME280;39629;51.400;5.494;2024-01-30T13:25:39;102733.69;;;11.34;64.50
47897;BME280;39629;51.400;5.494;2024-01-30T13:30:42;102738.84;;;11.20;63.57
47897;BME280;39629;51.400;5.494;2024-01-30T13:35:44;102744.22;;;11.15;65.06
47897;BME280;39629;51.400;5.494;2024-01-30T13:40:48;102742.66;;;10.94;63.89
47897;BME280;39629;51.400;5.494;2024-01-30T13:45:51;102728.66;;;10.87;65.32
47897;BME280;39629;51.400;5.494;2024-01-30T13:50:53;102736.19;;;11.00;62.90
47897;BME280;39629;51.400;5.494;2024-01-30T13:55:55;102742.06;;;11.17;61.94
47897;BME280;39629;51.400;5.494;2024-01-30T14:00:58;102748.53;;;11.16;63.38
47897;BME280;39629;51.400;5.494;2024-01-30T14:05:59;102739.66;;;11.11;63.22
47897;BME280;39629;51.400;5.494;2024-01-30T14:11:01;102750.19;;;11.02;64.19
47897;BME280;39629;51.400;5.494;2024-01-30T14:16:05;102756.91;;;11.05;64.92
47897;BME280;39629;51.400;5.494;2024-01-30T14:21:07;102770.63;;;10.93;64.75
47897;BME280;39629;51.400;5.494;2024-01-30T14:26:09;102767.09;;;10.87;65.29
47897;BME280;39629;51.400;5.494;2024-01-30T14:31:12;102760.13;;;10.81;67.08
47897;BME280;39629;51.400;5.494;2024-01-30T14:36:14;102773.03;;;10.79;66.22
47897;BME280;39629;51.400;5.494;2024-01-30T14:41:16;102776.75;;;10.68;68.11
47897;BME280;39629;51.400;5.494;2024-01-30T14:46:19;102793.44;;;10.60;67.67
47897;BME280;39629;51.400;5.494;2024-01-30T14:51:20;102807.13;;;10.48;69.56
47897;BME280;39629;51.400;5.494;2024-01-30T14:56:22;102809.25;;;10.41;70.89
47897;BME280;39629;51.400;5.494;2024-01-30T15:01:25;102822.69;;;10.31;71.30
47897;BME280;39629;51.400;5.494;2024-01-30T15:06:27;102822.13;;;10.19;72.36
47897;BME280;39629;51.400;5.494;2024-01-30T15:11:29;102843.03;;;10.06;74.30
47897;BME280;39629;51.400;5.494;2024-01-30T15:16:32;102860.59;;;9.82;75.97
47897;BME280;39629;51.400;5.494;2024-01-30T15:21:34;102867.78;;;9.66;75.58
47897;BME280;39629;51.400;5.494;2024-01-30T15:26:36;102875.50;;;9.58;75.12
47897;BME280;39629;51.400;5.494;2024-01-30T15:31:39;102876.28;;;9.53;73.94
47897;BME280;39629;51.400;5.494;2024-01-30T15:36:41;102889.13;;;9.46;74.54
47897;BME280;39629;51.400;5.494;2024-01-30T15:41:43;102897.34;;;9.34;75.04
47897;BME280;39629;51.400;5.494;2024-01-30T15:46:46;102904.75;;;9.22;75.41
47897;BME280;39629;51.400;5.494;2024-01-30T15:51:47;102919.16;;;9.16;75.90
47897;BME280;39629;51.400;5.494;2024-01-30T15:56:49;102916.19;;;9.12;76.88
47897;BME280;39629;51.400;5.494;2024-01-30T16:01:52;102920.66;;;9.02;76.52
47897;BME280;39629;51.400;5.494;2024-01-30T16:06:54;102935.06;;;8.96;75.86
47897;BME280;39629;51.400;5.494;2024-01-30T16:11:55;102936.63;;;8.92;77.15
47897;BME280;39629;51.400;5.494;2024-01-30T16:16:58;102940.63;;;8.89;76.67
47897;BME280;39629;51.400;5.494;2024-01-30T16:22:00;102946.75;;;8.85;76.81
47897;BME280;39629;51.400;5.494;2024-01-30T16:27:01;102952.03;;;8.79;77.09
47897;BME280;39629;51.400;5.494;2024-01-30T16:32:06;102969.91;;;8.74;77.50
47897;BME280;39629;51.400;5.494;2024-01-30T16:37:08;102963.44;;;8.70;77.99
47897;BME280;39629;51.400;5.494;2024-01-30T16:42:09;102981.88;;;8.66;78.94
47897;BME280;39629;51.400;5.494;2024-01-30T16:47:14;102985.31;;;8.62;79.14
47897;BME280;39629;51.400;5.494;2024-01-30T16:52:16;102990.63;;;8.57;80.14
47897;BME280;39629;51.400;5.494;2024-01-30T16:57:17;102992.09;;;8.47;80.90
47897;BME280;39629;51.400;5.494;2024-01-30T17:02:20;102997.09;;;8.39;81.65
47897;BME280;39629;51.400;5.494;2024-01-30T17:07:22;103001.31;;;8.35;82.42
47897;BME280;39629;51.400;5.494;2024-01-30T17:12:23;103010.56;;;8.27;82.86
47897;BME280;39629;51.400;5.494;2024-01-30T17:17:26;103031.91;;;8.22;83.02
47897;BME280;39629;51.400;5.494;2024-01-30T17:22:28;103037.38;;;8.10;85.75
47897;BME280;39629;51.400;5.494;2024-01-30T17:27:30;103048.41;;;7.97;86.67
47897;BME280;39629;51.400;5.494;2024-01-30T17:32:33;103050.44;;;7.90;87.68
47897;BME280;39629;51.400;5.494;2024-01-30T17:37:35;103061.72;;;7.92;87.67
47897;BME280;39629;51.400;5.494;2024-01-30T17:42:38;103058.94;;;7.87;87.44
47897;BME280;39629;51.400;5.494;2024-01-30T17:47:41;103072.66;;;7.91;87.15
47897;BME280;39629;51.400;5.494;2024-01-30T17:52:43;103067.22;;;7.85;87.72
47897;BME280;39629;51.400;5.494;2024-01-30T17:57:44;103073.06;;;7.82;88.29
47897;BME280;39629;51.400;5.494;2024-01-30T18:02:47;103076.47;;;7.78;88.62
47897;BME280;39629;51.400;5.494;2024-01-30T18:07:49;103095.03;;;7.84;88.11
47897;BME280;39629;51.400;5.494;2024-01-30T18:12:51;103100.44;;;7.73;89.07
47897;BME280;39629;51.400;5.494;2024-01-30T18:17:55;103105.22;;;7.71;88.76
47897;BME280;39629;51.400;5.494;2024-01-30T18:22:57;103117.22;;;7.68;89.39
47897;BME280;39629;51.400;5.494;2024-01-30T18:27:58;103118.75;;;7.64;89.49
47897;BME280;39629;51.400;5.494;2024-01-30T18:33:03;103118.19;;;7.62;89.24
47897;BME280;39629;51.400;5.494;2024-01-30T18:38:05;103119.22;;;7.61;89.33
47897;BME280;39629;51.400;5.494;2024-01-30T18:43:07;103125.63;;;7.60;89.32
47897;BME280;39629;51.400;5.494;2024-01-30T18:48:10;103126.69;;;7.59;89.33
47897;BME280;39629;51.400;5.494;2024-01-30T18:53:12;103125.31;;;7.57;89.67
47897;BME280;39629;51.400;5.494;2024-01-30T18:58:14;103129.41;;;7.47;90.95
47897;BME280;39629;51.400;5.494;2024-01-30T19:03:19;103137.69;;;7.46;91.03
47897;BME280;39629;51.400;5.494;2024-01-30T19:08:21;103153.34;;;7.42;91.28
47897;BME280;39629;51.400;5.494;2024-01-30T19:13:23;103145.81;;;7.39;91.69
47897;BME280;39629;51.400;5.494;2024-01-30T19:18:26;103149.78;;;7.37;91.43
47897;BME280;39629;51.400;5.494;2024-01-30T19:23:27;103149.78;;;7.37;91.39
47897;BME280;39629;51.400;5.494;2024-01-30T19:28:29;103160.22;;;7.38;90.89
47897;BME280;39629;51.400;5.494;2024-01-30T19:33:32;103156.75;;;7.38;90.95
47897;BME280;39629;51.400;5.494;2024-01-30T19:38:34;103176.97;;;7.34;91.05
47897;BME280;39629;51.400;5.494;2024-01-30T19:43:36;103182.09;;;7.35;90.68
47897;BME280;39629;51.400;5.494;2024-01-30T19:48:39;103192.91;;;7.29;92.00
47897;BME280;39629;51.400;5.494;2024-01-30T19:53:41;103189.31;;;7.23;93.50
47897;BME280;39629;51.400;5.494;2024-01-30T19:58:43;103208.50;;;7.20;93.80
47897;BME280;39629;51.400;5.494;2024-01-30T20:03:46;103199.34;;;7.16;93.94
47897;BME280;39629;51.400;5.494;2024-01-30T20:08:48;103198.53;;;7.15;94.01
47897;BME280;39629;51.400;5.494;2024-01-30T20:13:49;103210.03;;;7.16;94.28
47897;BME280;39629;51.400;5.494;2024-01-30T20:18:52;103205.16;;;7.13;94.77
47897;BME280;39629;51.400;5.494;2024-01-30T20:23:54;103208.06;;;7.11;94.76
47897;BME280;39629;51.400;5.494;2024-01-30T20:28:57;103217.94;;;7.11;94.92
47897;BME280;39629;51.400;5.494;2024-01-30T20:34:00;103233.38;;;7.09;95.29
47897;BME280;39629;51.400;5.494;2024-01-30T20:39:01;103235.25;;;7.08;95.43
47897;BME280;39629;51.400;5.494;2024-01-30T20:44:04;103233.84;;;7.06;95.88
47897;BME280;39629;51.400;5.494;2024-01-30T20:49:08;103235.94;;;7.04;96.12
47897;BME280;39629;51.400;5.494;2024-01-30T20:54:10;103252.22;;;7.02;96.53
47897;BME280;39629;51.400;5.494;2024-01-30T20:59:12;103254.88;;;7.02;96.65
47897;BME280;39629;51.400;5.494;2024-01-30T21:04:15;103256.75;;;7.02;96.27
47897;BME280;39629;51.400;5.494;2024-01-30T21:09:16;103255.94;;;7.01;96.15
47897;BME280;39629;51.400;5.494;2024-01-30T21:14:18;103253.03;;;7.03;96.24
47897;BME280;39629;51.400;5.494;2024-01-30T21:19:21;103265.56;;;7.02;96.07
47897;BME280;39629;51.400;5.494;2024-01-30T21:24:23;103261.84;;;7.03;96.24
47897;BME280;39629;51.400;5.494;2024-01-30T21:29:25;103260.22;;;7.02;96.24
47897;BME280;39629;51.400;5.494;2024-01-30T21:34:28;103273.59;;;7.02;96.53
47897;BME280;39629;51.400;5.494;2024-01-30T21:39:29;103287.75;;;7.03;96.13
47897;BME280;39629;51.400;5.494;2024-01-30T21:44:31;103287.75;;;7.03;96.23
47897;BME280;39629;51.400;5.494;2024-01-30T21:49:34;103284.50;;;7.01;96.38
47897;BME280;39629;51.400;5.494;2024-01-30T21:54:38;103297.88;;;7.01;96.35
47897;BME280;39629;51.400;5.494;2024-01-30T21:59:40;103302.16;;;7.02;96.55
47897;BME280;39629;51.400;5.494;2024-01-30T22:04:43;103305.06;;;7.00;96.31
47897;BME280;39629;51.400;5.494;2024-01-30T22:09:46;103317.63;;;7.00;96.14
47897;BME280;39629;51.400;5.494;2024-01-30T22:14:48;103312.28;;;7.00;96.21
47897;BME280;39629;51.400;5.494;2024-01-30T22:19:51;103310.66;;;6.99;96.51
47897;BME280;39629;51.400;5.494;2024-01-30T22:24:53;103314.38;;;6.98;96.02
47897;BME280;39629;51.400;5.494;2024-01-30T22:29:54;103311.09;;;6.96;96.54
47897;BME280;39629;51.400;5.494;2024-01-30T22:34:57;103319.34;;;6.94;96.72
47897;BME280;39629;51.400;5.494;2024-01-30T22:39:59;103324.69;;;6.94;96.88
47897;BME280;39629;51.400;5.494;2024-01-30T22:45:01;103329.69;;;6.91;96.76
47897;BME280;39629;51.400;5.494;2024-01-30T22:50:04;103328.28;;;6.88;96.83
47897;BME280;39629;51.400;5.494;2024-01-30T22:55:07;103331.78;;;6.88;96.80
47897;BME280;39629;51.400;5.494;2024-01-30T23:00:10;103335.97;;;6.84;96.99
47897;BME280;39629;51.400;5.494;2024-01-30T23:05:16;103337.81;;;6.84;96.60
47897;BME280;39629;51.400;5.494;2024-01-30T23:10:18;103344.19;;;6.83;96.85
47897;BME280;39629;51.400;5.494;2024-01-30T23:15:20;103338.84;;;6.83;96.90
47897;BME280;39629;51.400;5.494;2024-01-30T23:20:24;103341.75;;;6.81;96.54
47897;BME280;39629;51.400;5.494;2024-01-30T23:25:25;103353.25;;;6.82;97.01
47897;BME280;39629;51.400;5.494;2024-01-30T23:30:27;103353.72;;;6.79;96.58
47897;BME280;39629;51.400;5.494;2024-01-30T23:35:30;103352.66;;;6.80;96.78
47897;BME280;39629;51.400;5.494;2024-01-30T23:40:32;103353.72;;;6.79;96.72
47897;BME280;39629;51.400;5.494;2024-01-30T23:45:33;103359.88;;;6.79;96.94
47897;BME280;39629;51.400;5.494;2024-01-30T23:50:37;103354.16;;;6.76;96.96
47897;BME280;39629;51.400;5.494;2024-01-30T23:55:38;103356.84;;;6.76;97.28
